sensor_id;sensor_type;location;lat;lon;timestamp;P1;durP1;ratioP1;P2;durP2;ratioP2
66402;SDS011;53212;52.112;5.144;2022-09-20T00:01:25;3.20;;;0.80;;
66402;SDS011;53212;52.112;5.144;2022-09-20T00:03:57;5.20;;;1.00;;
66402;SDS011;53212;52.112;5.144;2022-09-20T00:06:27;8.30;;;1.20;;
66402;SDS011;53212;52.112;5.144;2022-09-20T00:08:54;6.20;;;1.20;;
66402;SDS011;53212;52.112;5.144;2022-09-20T00:11:22;2.70;;;1.10;;
66402;SDS011;53212;52.112;5.144;2022-09-20T00:13:51;4.50;;;0.90;;
66402;SDS011;53212;52.112;5.144;2022-09-20T00:16:21;3.60;;;0.80;;
66402;SDS011;53212;52.112;5.144;2022-09-20T00:19:00;2.10;;;1.20;;
66402;SDS011;53212;52.112;5.144;2022-09-20T00:21:29;4.10;;;1.30;;
66402;SDS011;53212;52.112;5.144;2022-09-20T00:23:55;7.60;;;1.60;;
66402;SDS011;53212;52.112;5.144;2022-09-20T00:26:22;3.10;;;0.70;;
66402;SDS011;53212;52.112;5.144;2022-09-20T00:28:48;6.60;;;1.40;;
66402;SDS011;53212;52.112;5.144;2022-09-20T00:31:14;6.70;;;1.50;;
66402;SDS011;53212;52.112;5.144;2022-09-20T00:33:40;5.80;;;1.00;;
66402;SDS011;53212;52.112;5.144;2022-09-20T00:36:24;4.70;;;0.80;;
66402;SDS011;53212;52.112;5.144;2022-09-20T00:38:58;4.50;;;0.90;;
66402;SDS011;53212;52.112;5.144;2022-09-20T00:41:25;4.90;;;1.50;;
66402;SDS011;53212;52.112;5.144;2022-09-20T00:43:51;5.10;;;0.90;;
66402;SDS011;53212;52.112;5.144;2022-09-20T00:46:39;3.90;;;1.30;;
66402;SDS011;53212;52.112;5.144;2022-09-20T00:49:17;5.60;;;1.10;;
66402;SDS011;53212;52.112;5.144;2022-09-20T00:51:50;5.70;;;0.90;;
66402;SDS011;53212;52.112;5.144;2022-09-20T00:54:19;5.80;;;1.30;;
66402;SDS011;53212;52.112;5.144;2022-09-20T00:56:47;5.90;;;0.90;;
66402;SDS011;53212;52.112;5.144;2022-09-20T01:01:45;8.40;;;1.50;;
66402;SDS011;53212;52.112;5.144;2022-09-20T01:04:13;7.10;;;0.90;;
66402;SDS011;53212;52.112;5.144;2022-09-20T01:06:41;6.40;;;1.00;;
66402;SDS011;53212;52.112;5.144;2022-09-20T01:09:10;2.90;;;1.20;;
66402;SDS011;53212;52.112;5.144;2022-09-20T01:11:35;5.00;;;1.10;;
66402;SDS011;53212;52.112;5.144;2022-09-20T01:14:02;4.30;;;1.10;;
66402;SDS011;53212;52.112;5.144;2022-09-20T01:16:29;4.40;;;1.20;;
66402;SDS011;53212;52.112;5.144;2022-09-20T01:18:56;4.70;;;1.00;;
66402;SDS011;53212;52.112;5.144;2022-09-20T01:21:25;3.90;;;0.90;;
66402;SDS011;53212;52.112;5.144;2022-09-20T01:26:45;4.30;;;1.00;;
66402;SDS011;53212;52.112;5.144;2022-09-20T01:32:22;3.10;;;1.20;;
66402;SDS011;53212;52.112;5.144;2022-09-20T01:34:56;3.40;;;1.30;;
66402;SDS011;53212;52.112;5.144;2022-09-20T01:37:38;1.80;;;1.00;;
66402;SDS011;53212;52.112;5.144;2022-09-20T01:40:36;7.40;;;1.50;;
66402;SDS011;53212;52.112;5.144;2022-09-20T01:48:46;2.90;;;1.20;;
66402;SDS011;53212;52.112;5.144;2022-09-20T02:12:06;4.00;;;1.70;;
66402;SDS011;53212;52.112;5.144;2022-09-20T02:15:07;2.20;;;1.30;;
66402;SDS011;53212;52.112;5.144;2022-09-20T02:20:49;3.80;;;1.30;;
66402;SDS011;53212;52.112;5.144;2022-09-20T02:32:55;4.10;;;1.40;;
66402;SDS011;53212;52.112;5.144;2022-09-20T02:44:08;3.90;;;1.50;;
66402;SDS011;53212;52.112;5.144;2022-09-20T02:46:53;4.40;;;1.30;;
66402;SDS011;53212;52.112;5.144;2022-09-20T02:52:03;6.50;;;1.60;;
66402;SDS011;53212;52.112;5.144;2022-09-20T02:54:57;6.90;;;1.60;;
66402;SDS011;53212;52.112;5.144;2022-09-20T03:00:33;7.80;;;1.90;;
66402;SDS011;53212;52.112;5.144;2022-09-20T03:03:23;5.30;;;2.00;;
66402;SDS011;53212;52.112;5.144;2022-09-20T03:18:15;4.20;;;1.60;;
66402;SDS011;53212;52.112;5.144;2022-09-20T03:23:53;2.30;;;1.60;;
66402;SDS011;53212;52.112;5.144;2022-09-20T03:26:50;4.40;;;1.90;;
66402;SDS011;53212;52.112;5.144;2022-09-20T03:36:00;4.60;;;1.70;;
66402;SDS011;53212;52.112;5.144;2022-09-20T03:41:26;4.70;;;1.60;;
66402;SDS011;53212;52.112;5.144;2022-09-20T03:56:33;8.10;;;1.50;;
66402;SDS011;53212;52.112;5.144;2022-09-20T04:02:28;5.60;;;1.90;;
66402;SDS011;53212;52.112;5.144;2022-09-20T04:05:00;5.40;;;1.70;;
66402;SDS011;53212;52.112;5.144;2022-09-20T04:10:26;2.90;;;1.40;;
66402;SDS011;53212;52.112;5.144;2022-09-20T04:13:19;6.00;;;1.80;;
66402;SDS011;53212;52.112;5.144;2022-09-20T04:19:16;4.70;;;1.80;;
66402;SDS011;53212;52.112;5.144;2022-09-20T04:21:59;3.50;;;1.80;;
66402;SDS011;53212;52.112;5.144;2022-09-20T04:27:04;4.80;;;1.50;;
66402;SDS011;53212;52.112;5.144;2022-09-20T04:38:38;4.90;;;1.90;;
66402;SDS011;53212;52.112;5.144;2022-09-20T04:56:10;4.90;;;1.70;;
66402;SDS011;53212;52.112;5.144;2022-09-20T04:59:05;3.60;;;1.60;;
66402;SDS011;53212;52.112;5.144;2022-09-20T05:08:27;4.20;;;1.90;;
66402;SDS011;53212;52.112;5.144;2022-09-20T05:11:23;4.20;;;1.80;;
66402;SDS011;53212;52.112;5.144;2022-09-20T05:20:14;4.30;;;1.80;;
66402;SDS011;53212;52.112;5.144;2022-09-20T05:25:53;5.30;;;1.80;;
66402;SDS011;53212;52.112;5.144;2022-09-20T05:31:36;4.10;;;2.00;;
66402;SDS011;53212;52.112;5.144;2022-09-20T05:37:09;4.60;;;2.10;;
66402;SDS011;53212;52.112;5.144;2022-09-20T05:39:51;5.50;;;2.40;;
66402;SDS011;53212;52.112;5.144;2022-09-20T05:42:41;4.60;;;2.30;;
66402;SDS011;53212;52.112;5.144;2022-09-20T05:45:43;7.30;;;2.00;;
66402;SDS011;53212;52.112;5.144;2022-09-20T05:51:55;4.40;;;1.90;;
66402;SDS011;53212;52.112;5.144;2022-09-20T05:57:34;4.40;;;1.80;;
66402;SDS011;53212;52.112;5.144;2022-09-20T06:00:19;5.80;;;2.10;;
66402;SDS011;53212;52.112;5.144;2022-09-20T06:12:04;4.20;;;1.60;;
66402;SDS011;53212;52.112;5.144;2022-09-20T06:14:52;4.20;;;2.20;;
66402;SDS011;53212;52.112;5.144;2022-09-20T06:17:36;4.30;;;1.60;;
66402;SDS011;53212;52.112;5.144;2022-09-20T06:20:34;7.00;;;2.30;;
66402;SDS011;53212;52.112;5.144;2022-09-20T06:23:10;6.70;;;2.40;;
66402;SDS011;53212;52.112;5.144;2022-09-20T06:25:55;6.50;;;2.00;;
66402;SDS011;53212;52.112;5.144;2022-09-20T06:28:32;5.80;;;2.10;;
66402;SDS011;53212;52.112;5.144;2022-09-20T06:31:02;4.10;;;2.00;;
66402;SDS011;53212;52.112;5.144;2022-09-20T06:33:59;8.00;;;2.30;;
66402;SDS011;53212;52.112;5.144;2022-09-20T06:39:41;2.60;;;1.80;;
66402;SDS011;53212;52.112;5.144;2022-09-20T06:42:33;5.10;;;2.40;;
66402;SDS011;53212;52.112;5.144;2022-09-20T06:44:58;5.00;;;1.70;;
66402;SDS011;53212;52.112;5.144;2022-09-20T06:47:24;5.80;;;2.10;;
66402;SDS011;53212;52.112;5.144;2022-09-20T06:49:50;6.40;;;1.90;;
66402;SDS011;53212;52.112;5.144;2022-09-20T06:52:20;6.80;;;2.60;;
66402;SDS011;53212;52.112;5.144;2022-09-20T06:54:48;7.40;;;2.30;;
66402;SDS011;53212;52.112;5.144;2022-09-20T06:57:21;11.60;;;2.40;;
66402;SDS011;53212;52.112;5.144;2022-09-20T06:59:51;9.00;;;2.30;;
66402;SDS011;53212;52.112;5.144;2022-09-20T07:02:17;7.80;;;2.20;;
66402;SDS011;53212;52.112;5.144;2022-09-20T07:04:42;6.60;;;1.70;;
66402;SDS011;53212;52.112;5.144;2022-09-20T07:07:14;6.20;;;1.90;;
66402;SDS011;53212;52.112;5.144;2022-09-20T07:09:41;5.90;;;1.50;;
66402;SDS011;53212;52.112;5.144;2022-09-20T07:12:07;6.00;;;1.80;;
66402;SDS011;53212;52.112;5.144;2022-09-20T07:14:34;5.40;;;1.20;;
66402;SDS011;53212;52.112;5.144;2022-09-20T07:17:00;5.70;;;1.70;;
66402;SDS011;53212;52.112;5.144;2022-09-20T07:19:26;4.70;;;1.40;;
66402;SDS011;53212;52.112;5.144;2022-09-20T07:21:51;3.50;;;1.50;;
66402;SDS011;53212;52.112;5.144;2022-09-20T07:24:18;5.40;;;1.50;;
66402;SDS011;53212;52.112;5.144;2022-09-20T07:26:58;4.00;;;1.50;;
66402;SDS011;53212;52.112;5.144;2022-09-20T07:31:51;7.30;;;1.80;;
66402;SDS011;53212;52.112;5.144;2022-09-20T07:34:17;4.90;;;1.50;;
66402;SDS011;53212;52.112;5.144;2022-09-20T07:36:45;8.50;;;1.80;;
66402;SDS011;53212;52.112;5.144;2022-09-20T07:39:11;5.70;;;1.50;;
66402;SDS011;53212;52.112;5.144;2022-09-20T07:41:37;6.50;;;1.80;;
66402;SDS011;53212;52.112;5.144;2022-09-20T07:44:02;6.10;;;1.70;;
66402;SDS011;53212;52.112;5.144;2022-09-20T07:46:52;5.10;;;1.60;;
66402;SDS011;53212;52.112;5.144;2022-09-20T07:49:20;7.60;;;2.10;;
66402;SDS011;53212;52.112;5.144;2022-09-20T07:51:47;7.30;;;1.90;;
66402;SDS011;53212;52.112;5.144;2022-09-20T07:54:15;9.80;;;1.60;;
66402;SDS011;53212;52.112;5.144;2022-09-20T07:56:41;5.70;;;1.40;;
66402;SDS011;53212;52.112;5.144;2022-09-20T07:59:07;2.40;;;1.20;;
66402;SDS011;53212;52.112;5.144;2022-09-20T08:01:34;5.30;;;1.00;;
66402;SDS011;53212;52.112;5.144;2022-09-20T08:04:01;7.90;;;1.40;;
66402;SDS011;53212;52.112;5.144;2022-09-20T08:06:28;5.20;;;1.80;;
66402;SDS011;53212;52.112;5.144;2022-09-20T08:08:55;3.90;;;1.20;;
66402;SDS011;53212;52.112;5.144;2022-09-20T08:11:22;4.30;;;1.20;;
66402;SDS011;53212;52.112;5.144;2022-09-20T08:13:54;6.10;;;1.50;;
66402;SDS011;53212;52.112;5.144;2022-09-20T08:16:22;3.60;;;1.10;;
66402;SDS011;53212;52.112;5.144;2022-09-20T08:18:50;8.40;;;1.40;;
66402;SDS011;53212;52.112;5.144;2022-09-20T08:21:24;5.90;;;1.40;;
66402;SDS011;53212;52.112;5.144;2022-09-20T08:23:52;3.90;;;0.90;;
66402;SDS011;53212;52.112;5.144;2022-09-20T08:26:19;2.50;;;1.00;;
66402;SDS011;53212;52.112;5.144;2022-09-20T08:28:50;6.20;;;1.80;;
66402;SDS011;53212;52.112;5.144;2022-09-20T08:31:23;7.30;;;1.20;;
66402;SDS011;53212;52.112;5.144;2022-09-20T08:33:51;4.20;;;1.10;;
66402;SDS011;53212;52.112;5.144;2022-09-20T08:36:19;3.00;;;0.70;;
66402;SDS011;53212;52.112;5.144;2022-09-20T08:38:47;3.10;;;0.80;;
66402;SDS011;53212;52.112;5.144;2022-09-20T08:41:30;3.40;;;0.90;;
66402;SDS011;53212;52.112;5.144;2022-09-20T08:44:21;3.90;;;1.00;;
66402;SDS011;53212;52.112;5.144;2022-09-20T08:47:33;5.90;;;0.90;;
66402;SDS011;53212;52.112;5.144;2022-09-20T08:50:06;1.40;;;0.60;;
66402;SDS011;53212;52.112;5.144;2022-09-20T08:52:35;3.90;;;0.80;;
66402;SDS011;53212;52.112;5.144;2022-09-20T08:55:18;5.00;;;1.00;;
66402;SDS011;53212;52.112;5.144;2022-09-20T08:57:51;3.50;;;0.80;;
66402;SDS011;53212;52.112;5.144;2022-09-20T09:00:29;4.00;;;0.80;;
66402;SDS011;53212;52.112;5.144;2022-09-20T09:02:59;5.70;;;0.70;;
66402;SDS011;53212;52.112;5.144;2022-09-20T09:05:35;3.80;;;0.90;;
66402;SDS011;53212;52.112;5.144;2022-09-20T09:08:09;6.70;;;0.80;;
66402;SDS011;53212;52.112;5.144;2022-09-20T09:11:05;2.10;;;0.70;;
66402;SDS011;53212;52.112;5.144;2022-09-20T09:13:56;4.50;;;0.80;;
66402;SDS011;53212;52.112;5.144;2022-09-20T09:16:31;2.60;;;0.70;;
66402;SDS011;53212;52.112;5.144;2022-09-20T09:19:24;2.70;;;0.80;;
66402;SDS011;53212;52.112;5.144;2022-09-20T09:21:58;4.00;;;0.90;;
66402;SDS011;53212;52.112;5.144;2022-09-20T09:24:27;4.10;;;0.70;;
66402;SDS011;53212;52.112;5.144;2022-09-20T09:27:24;2.70;;;0.80;;
66402;SDS011;53212;52.112;5.144;2022-09-20T09:29:52;6.20;;;0.90;;
66402;SDS011;53212;52.112;5.144;2022-09-20T09:32:22;4.60;;;0.80;;
66402;SDS011;53212;52.112;5.144;2022-09-20T09:34:53;5.80;;;0.70;;
66402;SDS011;53212;52.112;5.144;2022-09-20T09:37:27;4.30;;;1.00;;
66402;SDS011;53212;52.112;5.144;2022-09-20T09:40:15;2.70;;;0.80;;
66402;SDS011;53212;52.112;5.144;2022-09-20T09:42:53;2.10;;;0.80;;
66402;SDS011;53212;52.112;5.144;2022-09-20T09:45:36;2.20;;;0.50;;
66402;SDS011;53212;52.112;5.144;2022-09-20T09:51:12;5.70;;;1.00;;
66402;SDS011;53212;52.112;5.144;2022-09-20T09:53:44;7.10;;;0.90;;
66402;SDS011;53212;52.112;5.144;2022-09-20T09:59:44;2.70;;;0.60;;
66402;SDS011;53212;52.112;5.144;2022-09-20T10:11:31;3.70;;;1.20;;
66402;SDS011;53212;52.112;5.144;2022-09-20T10:23:57;3.20;;;0.80;;
66402;SDS011;53212;52.112;5.144;2022-09-20T10:26:46;3.30;;;0.80;;
66402;SDS011;53212;52.112;5.144;2022-09-20T10:32:26;4.60;;;0.60;;
66402;SDS011;53212;52.112;5.144;2022-09-20T10:38:15;3.70;;;0.90;;
66402;SDS011;53212;52.112;5.144;2022-09-20T10:47:15;5.50;;;0.60;;
66402;SDS011;53212;52.112;5.144;2022-09-20T10:56:02;2.70;;;0.90;;
66402;SDS011;53212;52.112;5.144;2022-09-20T11:05:01;4.20;;;0.90;;
66402;SDS011;53212;52.112;5.144;2022-09-20T11:10:27;2.60;;;0.70;;
66402;SDS011;53212;52.112;5.144;2022-09-20T11:13:03;3.10;;;0.70;;
66402;SDS011;53212;52.112;5.144;2022-09-20T11:15:48;3.60;;;0.70;;
66402;SDS011;53212;52.112;5.144;2022-09-20T11:18:38;2.20;;;0.60;;
66402;SDS011;53212;52.112;5.144;2022-09-20T11:23:55;2.80;;;0.80;;
66402;SDS011;53212;52.112;5.144;2022-09-20T11:26:34;3.40;;;0.90;;
66402;SDS011;53212;52.112;5.144;2022-09-20T11:29:35;3.60;;;0.70;;
66402;SDS011;53212;52.112;5.144;2022-09-20T11:32:18;4.20;;;0.90;;
66402;SDS011;53212;52.112;5.144;2022-09-20T11:35:00;3.70;;;0.80;;
66402;SDS011;53212;52.112;5.144;2022-09-20T11:37:37;2.60;;;0.50;;
66402;SDS011;53212;52.112;5.144;2022-09-20T11:40:43;5.10;;;1.00;;
66402;SDS011;53212;52.112;5.144;2022-09-20T11:43:15;3.90;;;0.70;;
66402;SDS011;53212;52.112;5.144;2022-09-20T11:45:42;2.30;;;0.70;;
66402;SDS011;53212;52.112;5.144;2022-09-20T11:48:23;2.90;;;0.80;;
66402;SDS011;53212;52.112;5.144;2022-09-20T11:53:58;2.70;;;0.70;;
66402;SDS011;53212;52.112;5.144;2022-09-20T11:56:36;6.00;;;1.00;;
66402;SDS011;53212;52.112;5.144;2022-09-20T11:59:04;3.70;;;1.00;;
66402;SDS011;53212;52.112;5.144;2022-09-20T12:01:37;2.90;;;0.50;;
66402;SDS011;53212;52.112;5.144;2022-09-20T12:06:43;4.90;;;0.90;;
66402;SDS011;53212;52.112;5.144;2022-09-20T12:09:34;6.30;;;0.90;;
66402;SDS011;53212;52.112;5.144;2022-09-20T12:12:38;3.00;;;0.70;;
66402;SDS011;53212;52.112;5.144;2022-09-20T12:28:51;4.00;;;1.10;;
66402;SDS011;53212;52.112;5.144;2022-09-20T12:39:27;3.20;;;1.00;;
66402;SDS011;53212;52.112;5.144;2022-09-20T12:44:54;5.90;;;1.00;;
66402;SDS011;53212;52.112;5.144;2022-09-20T12:47:30;2.70;;;0.90;;
66402;SDS011;53212;52.112;5.144;2022-09-20T12:49:59;3.90;;;0.80;;
66402;SDS011;53212;52.112;5.144;2022-09-20T13:09:04;3.20;;;0.80;;
66402;SDS011;53212;52.112;5.144;2022-09-20T13:14:27;2.30;;;0.70;;
66402;SDS011;53212;52.112;5.144;2022-09-20T13:16:59;1.70;;;0.80;;
66402;SDS011;53212;52.112;5.144;2022-09-20T13:19:35;2.30;;;0.60;;
66402;SDS011;53212;52.112;5.144;2022-09-20T13:22:13;2.80;;;0.60;;
66402;SDS011;53212;52.112;5.144;2022-09-20T13:24:47;3.00;;;0.80;;
66402;SDS011;53212;52.112;5.144;2022-09-20T13:27:37;1.40;;;0.80;;
66402;SDS011;53212;52.112;5.144;2022-09-20T13:30:20;3.90;;;0.80;;
66402;SDS011;53212;52.112;5.144;2022-09-20T13:32:47;2.60;;;0.50;;
66402;SDS011;53212;52.112;5.144;2022-09-20T13:38:01;1.60;;;0.70;;
66402;SDS011;53212;52.112;5.144;2022-09-20T13:40:36;2.70;;;0.60;;
66402;SDS011;53212;52.112;5.144;2022-09-20T13:45:52;4.80;;;0.70;;
66402;SDS011;53212;52.112;5.144;2022-09-20T13:48:26;3.00;;;0.80;;
66402;SDS011;53212;52.112;5.144;2022-09-20T13:53:21;2.20;;;0.80;;
66402;SDS011;53212;52.112;5.144;2022-09-20T13:55:49;1.80;;;0.80;;
66402;SDS011;53212;52.112;5.144;2022-09-20T14:03:25;1.80;;;0.50;;
66402;SDS011;53212;52.112;5.144;2022-09-20T14:05:59;1.90;;;0.60;;
66402;SDS011;53212;52.112;5.144;2022-09-20T14:08:41;3.20;;;0.80;;
66402;SDS011;53212;52.112;5.144;2022-09-20T14:11:28;1.70;;;0.40;;
66402;SDS011;53212;52.112;5.144;2022-09-20T14:13:56;5.10;;;0.70;;
66402;SDS011;53212;52.112;5.144;2022-09-20T14:16:32;2.20;;;0.50;;
66402;SDS011;53212;52.112;5.144;2022-09-20T14:19:00;3.40;;;0.90;;
66402;SDS011;53212;52.112;5.144;2022-09-20T14:21:31;2.30;;;0.70;;
66402;SDS011;53212;52.112;5.144;2022-09-20T14:23:59;2.00;;;0.70;;
66402;SDS011;53212;52.112;5.144;2022-09-20T14:26:34;4.70;;;0.90;;
66402;SDS011;53212;52.112;5.144;2022-09-20T14:29:26;2.70;;;0.70;;
66402;SDS011;53212;52.112;5.144;2022-09-20T14:32:17;3.80;;;0.90;;
66402;SDS011;53212;52.112;5.144;2022-09-20T14:35:06;3.90;;;1.00;;
66402;SDS011;53212;52.112;5.144;2022-09-20T14:37:50;4.40;;;0.80;;
66402;SDS011;53212;52.112;5.144;2022-09-20T14:40:30;5.40;;;1.10;;
66402;SDS011;53212;52.112;5.144;2022-09-20T14:43:04;2.20;;;0.70;;
66402;SDS011;53212;52.112;5.144;2022-09-20T14:45:35;5.40;;;0.80;;
66402;SDS011;53212;52.112;5.144;2022-09-20T14:53:34;4.70;;;0.70;;
66402;SDS011;53212;52.112;5.144;2022-09-20T14:58:30;2.80;;;0.80;;
66402;SDS011;53212;52.112;5.144;2022-09-20T15:01:05;3.70;;;0.70;;
66402;SDS011;53212;52.112;5.144;2022-09-20T15:03:46;4.70;;;0.70;;
66402;SDS011;53212;52.112;5.144;2022-09-20T15:06:12;5.80;;;1.10;;
66402;SDS011;53212;52.112;5.144;2022-09-20T15:08:38;3.70;;;1.00;;
66402;SDS011;53212;52.112;5.144;2022-09-20T15:11:04;4.70;;;0.70;;
66402;SDS011;53212;52.112;5.144;2022-09-20T15:13:30;2.40;;;0.90;;
66402;SDS011;53212;52.112;5.144;2022-09-20T15:15:55;1.40;;;0.60;;
66402;SDS011;53212;52.112;5.144;2022-09-20T15:18:27;9.10;;;0.90;;
66402;SDS011;53212;52.112;5.144;2022-09-20T15:21:03;4.20;;;0.90;;
66402;SDS011;53212;52.112;5.144;2022-09-20T15:23:30;2.60;;;0.90;;
66402;SDS011;53212;52.112;5.144;2022-09-20T15:25:56;2.70;;;0.70;;
66402;SDS011;53212;52.112;5.144;2022-09-20T15:28:22;4.50;;;1.00;;
66402;SDS011;53212;52.112;5.144;2022-09-20T15:30:49;3.00;;;1.00;;
66402;SDS011;53212;52.112;5.144;2022-09-20T15:33:16;3.90;;;0.80;;
66402;SDS011;53212;52.112;5.144;2022-09-20T15:35:43;3.20;;;1.00;;
66402;SDS011;53212;52.112;5.144;2022-09-20T15:38:10;2.80;;;0.80;;
66402;SDS011;53212;52.112;5.144;2022-09-20T15:40:43;5.80;;;0.90;;
66402;SDS011;53212;52.112;5.144;2022-09-20T15:43:13;2.30;;;0.90;;
66402;SDS011;53212;52.112;5.144;2022-09-20T15:45:51;3.30;;;1.00;;
66402;SDS011;53212;52.112;5.144;2022-09-20T15:48:18;3.20;;;1.00;;
66402;SDS011;53212;52.112;5.144;2022-09-20T15:53:37;8.40;;;1.20;;
66402;SDS011;53212;52.112;5.144;2022-09-20T15:58:50;3.70;;;0.90;;
66402;SDS011;53212;52.112;5.144;2022-09-20T16:01:31;5.50;;;1.00;;
66402;SDS011;53212;52.112;5.144;2022-09-20T16:04:09;2.50;;;0.70;;
66402;SDS011;53212;52.112;5.144;2022-09-20T16:06:36;5.20;;;0.70;;
66402;SDS011;53212;52.112;5.144;2022-09-20T16:09:03;6.20;;;1.00;;
66402;SDS011;53212;52.112;5.144;2022-09-20T16:11:29;2.80;;;0.60;;
66402;SDS011;53212;52.112;5.144;2022-09-20T16:13:56;2.80;;;0.90;;
66402;SDS011;53212;52.112;5.144;2022-09-20T16:16:23;1.70;;;0.80;;
66402;SDS011;53212;52.112;5.144;2022-09-20T16:18:50;3.30;;;0.80;;
66402;SDS011;53212;52.112;5.144;2022-09-20T16:21:36;9.50;;;1.10;;
66402;SDS011;53212;52.112;5.144;2022-09-20T16:24:06;2.50;;;0.70;;
66402;SDS011;53212;52.112;5.144;2022-09-20T16:26:33;6.10;;;1.30;;
66402;SDS011;53212;52.112;5.144;2022-09-20T16:29:00;4.40;;;1.00;;
66402;SDS011;53212;52.112;5.144;2022-09-20T16:34:18;2.70;;;0.70;;
66402;SDS011;53212;52.112;5.144;2022-09-20T16:36:46;3.90;;;1.00;;
66402;SDS011;53212;52.112;5.144;2022-09-20T16:39:13;7.80;;;1.10;;
66402;SDS011;53212;52.112;5.144;2022-09-20T16:41:41;2.10;;;0.80;;
66402;SDS011;53212;52.112;5.144;2022-09-20T16:44:07;6.70;;;1.10;;
66402;SDS011;53212;52.112;5.144;2022-09-20T16:46:33;4.60;;;0.80;;
66402;SDS011;53212;52.112;5.144;2022-09-20T16:49:02;3.50;;;0.90;;
66402;SDS011;53212;52.112;5.144;2022-09-20T16:51:32;6.70;;;0.80;;
66402;SDS011;53212;52.112;5.144;2022-09-20T16:54:04;2.70;;;0.90;;
66402;SDS011;53212;52.112;5.144;2022-09-20T16:56:35;4.50;;;1.00;;
66402;SDS011;53212;52.112;5.144;2022-09-20T16:59:02;4.20;;;1.20;;
66402;SDS011;53212;52.112;5.144;2022-09-20T17:01:29;4.40;;;1.30;;
66402;SDS011;53212;52.112;5.144;2022-09-20T17:03:56;5.20;;;1.40;;
66402;SDS011;53212;52.112;5.144;2022-09-20T17:06:23;2.60;;;0.90;;
66402;SDS011;53212;52.112;5.144;2022-09-20T17:08:54;7.00;;;1.50;;
66402;SDS011;53212;52.112;5.144;2022-09-20T17:11:25;3.30;;;0.90;;
66402;SDS011;53212;52.112;5.144;2022-09-20T17:13:52;2.10;;;0.70;;
66402;SDS011;53212;52.112;5.144;2022-09-20T17:16:24;3.60;;;0.90;;
66402;SDS011;53212;52.112;5.144;2022-09-20T17:18:59;4.20;;;1.00;;
66402;SDS011;53212;52.112;5.144;2022-09-20T17:21:27;1.50;;;1.00;;
66402;SDS011;53212;52.112;5.144;2022-09-20T17:23:55;6.50;;;1.00;;
66402;SDS011;53212;52.112;5.144;2022-09-20T17:26:27;6.20;;;1.00;;
66402;SDS011;53212;52.112;5.144;2022-09-20T17:28:58;2.50;;;0.80;;
66402;SDS011;53212;52.112;5.144;2022-09-20T17:31:27;5.80;;;1.00;;
66402;SDS011;53212;52.112;5.144;2022-09-20T17:33:56;7.30;;;1.10;;
66402;SDS011;53212;52.112;5.144;2022-09-20T17:36:28;5.60;;;1.50;;
66402;SDS011;53212;52.112;5.144;2022-09-20T17:38:57;2.70;;;1.10;;
66402;SDS011;53212;52.112;5.144;2022-09-20T17:41:25;5.80;;;1.40;;
66402;SDS011;53212;52.112;5.144;2022-09-20T17:43:53;7.30;;;1.30;;
66402;SDS011;53212;52.112;5.144;2022-09-20T17:46:25;1.60;;;1.10;;
66402;SDS011;53212;52.112;5.144;2022-09-20T17:48:59;6.00;;;0.90;;
66402;SDS011;53212;52.112;5.144;2022-09-20T17:51:27;5.90;;;1.10;;
66402;SDS011;53212;52.112;5.144;2022-09-20T17:53:55;3.40;;;1.40;;
66402;SDS011;53212;52.112;5.144;2022-09-20T17:56:20;4.70;;;1.40;;
66402;SDS011;53212;52.112;5.144;2022-09-20T17:58:53;1.50;;;0.80;;
66402;SDS011;53212;52.112;5.144;2022-09-20T18:01:20;3.40;;;1.50;;
66402;SDS011;53212;52.112;5.144;2022-09-20T18:03:47;2.10;;;0.80;;
66402;SDS011;53212;52.112;5.144;2022-09-20T18:06:18;5.70;;;1.20;;
66402;SDS011;53212;52.112;5.144;2022-09-20T18:08:48;4.00;;;1.20;;
66402;SDS011;53212;52.112;5.144;2022-09-20T18:11:16;4.10;;;1.40;;
66402;SDS011;53212;52.112;5.144;2022-09-20T18:13:42;4.20;;;1.20;;
66402;SDS011;53212;52.112;5.144;2022-09-20T18:16:12;5.60;;;1.20;;
66402;SDS011;53212;52.112;5.144;2022-09-20T18:18:40;3.90;;;1.40;;
66402;SDS011;53212;52.112;5.144;2022-09-20T18:21:23;4.40;;;1.40;;
66402;SDS011;53212;52.112;5.144;2022-09-20T18:23:50;4.60;;;1.30;;
66402;SDS011;53212;52.112;5.144;2022-09-20T18:26:18;4.00;;;1.30;;
66402;SDS011;53212;52.112;5.144;2022-09-20T18:31:52;3.40;;;2.00;;
66402;SDS011;53212;52.112;5.144;2022-09-20T18:34:20;8.10;;;3.00;;
66402;SDS011;53212;52.112;5.144;2022-09-20T18:36:53;4.80;;;2.90;;
66402;SDS011;53212;52.112;5.144;2022-09-20T18:39:20;6.50;;;3.10;;
66402;SDS011;53212;52.112;5.144;2022-09-20T18:41:47;5.90;;;2.30;;
66402;SDS011;53212;52.112;5.144;2022-09-20T18:44:15;4.50;;;1.90;;
66402;SDS011;53212;52.112;5.144;2022-09-20T18:46:42;4.80;;;2.00;;
66402;SDS011;53212;52.112;5.144;2022-09-20T18:49:09;2.40;;;1.90;;
66402;SDS011;53212;52.112;5.144;2022-09-20T18:51:38;6.80;;;2.20;;
66402;SDS011;53212;52.112;5.144;2022-09-20T18:54:09;5.30;;;1.90;;
66402;SDS011;53212;52.112;5.144;2022-09-20T18:56:36;4.90;;;1.80;;
66402;SDS011;53212;52.112;5.144;2022-09-20T18:59:16;2.20;;;1.70;;
66402;SDS011;53212;52.112;5.144;2022-09-20T19:20:45;4.10;;;1.70;;
66402;SDS011;53212;52.112;5.144;2022-09-20T19:23:27;5.30;;;2.00;;
66402;SDS011;53212;52.112;5.144;2022-09-20T19:26:21;9.30;;;2.30;;
66402;SDS011;53212;52.112;5.144;2022-09-20T19:28:55;4.40;;;2.00;;
66402;SDS011;53212;52.112;5.144;2022-09-20T19:33:55;4.90;;;1.50;;
66402;SDS011;53212;52.112;5.144;2022-09-20T19:41:56;5.10;;;2.00;;
66402;SDS011;53212;52.112;5.144;2022-09-20T19:44:50;7.20;;;1.60;;
66402;SDS011;53212;52.112;5.144;2022-09-20T19:50:30;3.10;;;1.80;;
66402;SDS011;53212;52.112;5.144;2022-09-20T19:53:11;3.90;;;1.70;;
66402;SDS011;53212;52.112;5.144;2022-09-20T19:55:38;7.90;;;2.20;;
66402;SDS011;53212;52.112;5.144;2022-09-20T19:58:08;3.60;;;1.90;;
66402;SDS011;53212;52.112;5.144;2022-09-20T20:00:34;4.50;;;1.50;;
66402;SDS011;53212;52.112;5.144;2022-09-20T20:03:00;2.70;;;1.60;;
66402;SDS011;53212;52.112;5.144;2022-09-20T20:05:26;3.40;;;1.60;;
66402;SDS011;53212;52.112;5.144;2022-09-20T20:11:38;7.30;;;1.80;;
66402;SDS011;53212;52.112;5.144;2022-09-20T20:17:24;5.00;;;1.80;;
66402;SDS011;53212;52.112;5.144;2022-09-20T20:28:31;5.70;;;2.50;;
66402;SDS011;53212;52.112;5.144;2022-09-20T20:30:56;10.70;;;2.50;;
66402;SDS011;53212;52.112;5.144;2022-09-20T20:33:26;4.80;;;2.70;;
66402;SDS011;53212;52.112;5.144;2022-09-20T20:35:52;2.60;;;1.80;;
66402;SDS011;53212;52.112;5.144;2022-09-20T20:38:20;4.50;;;1.90;;
66402;SDS011;53212;52.112;5.144;2022-09-20T20:40:55;7.80;;;2.80;;
66402;SDS011;53212;52.112;5.144;2022-09-20T20:43:33;5.00;;;2.00;;
66402;SDS011;53212;52.112;5.144;2022-09-20T20:46:02;3.70;;;2.00;;
66402;SDS011;53212;52.112;5.144;2022-09-20T20:48:28;8.30;;;2.60;;
66402;SDS011;53212;52.112;5.144;2022-09-20T20:53:36;3.10;;;1.70;;
66402;SDS011;53212;52.112;5.144;2022-09-20T20:56:11;5.40;;;1.80;;
66402;SDS011;53212;52.112;5.144;2022-09-20T21:01:07;4.10;;;1.90;;
66402;SDS011;53212;52.112;5.144;2022-09-20T21:03:35;4.30;;;1.70;;
66402;SDS011;53212;52.112;5.144;2022-09-20T21:06:01;5.00;;;1.80;;
66402;SDS011;53212;52.112;5.144;2022-09-20T21:08:39;2.60;;;1.70;;
66402;SDS011;53212;52.112;5.144;2022-09-20T21:11:08;1.80;;;1.50;;
66402;SDS011;53212;52.112;5.144;2022-09-20T21:13:51;3.50;;;1.70;;
66402;SDS011;53212;52.112;5.144;2022-09-20T21:16:22;5.10;;;1.70;;
66402;SDS011;53212;52.112;5.144;2022-09-20T21:18:49;7.30;;;1.80;;
66402;SDS011;53212;52.112;5.144;2022-09-20T21:23:54;3.80;;;1.70;;
66402;SDS011;53212;52.112;5.144;2022-09-20T21:26:22;4.60;;;1.50;;
66402;SDS011;53212;52.112;5.144;2022-09-20T21:28:56;6.10;;;1.60;;
66402;SDS011;53212;52.112;5.144;2022-09-20T21:31:24;5.80;;;2.00;;
66402;SDS011;53212;52.112;5.144;2022-09-20T21:33:51;4.60;;;1.70;;
66402;SDS011;53212;52.112;5.144;2022-09-20T21:36:20;5.10;;;1.60;;